createdAt,value
2019-06-07T00:04:39.178Z,794
2019-06-07T00:09:49.896Z,784
2019-06-07T00:15:00.631Z,779
2019-06-07T00:20:15.488Z,783
2019-06-07T00:25:34.344Z,791
2019-06-07T00:30:51.868Z,783
2019-06-07T00:36:03.428Z,764
2019-06-07T00:41:15.617Z,758
2019-06-07T00:46:32.794Z,752
2019-06-07T00:51:50.268Z,746
2019-06-07T00:57:04.320Z,747
2019-06-07T01:02:16.593Z,749
2019-06-07T01:07:41.706Z,739
2019-06-07T01:12:53.715Z,743
2019-06-07T01:18:34.409Z,739
2019-06-07T01:24:11.258Z,742
2019-06-07T01:29:24.885Z,743
2019-06-07T01:34:42.073Z,742
2019-06-07T01:39:53.358Z,740
2019-06-07T01:45:05.105Z,729
2019-06-07T01:50:16.993Z,733
2019-06-07T01:55:35.433Z,741
2019-06-07T02:00:46.995Z,728
2019-06-07T02:05:58.014Z,738
2019-06-07T02:11:09.005Z,748
2019-06-07T02:16:21.696Z,758
2019-06-07T02:21:42.819Z,740
2019-06-07T02:26:54.798Z,726
2019-06-07T02:32:06.363Z,749
2019-06-07T02:37:17.715Z,745
2019-06-07T02:42:30.578Z,784
2019-06-07T02:47:53.360Z,734
2019-06-07T02:53:04.737Z,714
2019-06-07T02:58:15.967Z,715
2019-06-07T03:03:28.820Z,711
2019-06-07T03:08:50.280Z,718
2019-06-07T03:14:02.037Z,720
2019-06-07T03:19:13.589Z,716
2019-06-07T03:24:24.309Z,721
2019-06-07T03:29:36.577Z,715
2019-06-07T03:34:47.310Z,710
2019-06-07T03:39:59.204Z,718
2019-06-07T03:45:10.770Z,768
2019-06-07T03:50:21.758Z,743
2019-06-07T03:55:35.578Z,722
2019-06-07T04:00:51.891Z,776
2019-06-07T04:06:03.471Z,782
2019-06-07T04:11:14.328Z,783
2019-06-07T04:16:26.363Z,781
2019-06-07T04:21:43.193Z,756
2019-06-07T04:26:53.878Z,744
2019-06-07T04:32:04.601Z,755
2019-06-07T04:37:15.317Z,720
2019-06-07T04:42:26.318Z,731
2019-06-07T04:47:38.869Z,731
2019-06-07T04:52:53.218Z,713
2019-06-07T04:58:04.779Z,712
2019-06-07T05:03:16.346Z,691
2019-06-07T05:08:30.310Z,717
2019-06-07T05:13:48.450Z,699
2019-06-07T05:19:00.019Z,745
2019-06-07T05:24:11.069Z,824
2019-06-07T05:29:22.327Z,813
2019-06-07T05:34:34.598Z,797
2019-06-07T05:39:56.976Z,817
2019-06-07T05:45:08.326Z,815
2019-06-07T05:50:55.289Z,768
2019-06-07T05:56:08.414Z,745
2019-06-07T06:01:42.618Z,741
2019-06-07T06:07:19.740Z,731
2019-06-07T06:12:35.059Z,663
2019-06-07T06:18:01.787Z,626
2019-06-07T06:23:13.071Z,634
2019-06-07T06:28:23.774Z,649
2019-06-07T06:33:35.153Z,638
2019-06-07T06:38:47.191Z,603
2019-06-07T06:44:02.151Z,602
2019-06-07T06:49:12.839Z,570
2019-06-07T06:54:39.877Z,545
2019-06-07T07:00:09.974Z,568
2019-06-07T07:05:20.663Z,579
2019-06-07T07:10:31.657Z,582
2019-06-07T07:15:43.343Z,579
2019-06-07T07:21:07.863Z,539
2019-06-07T07:26:18.576Z,541
2019-06-07T07:31:29.604Z,522
2019-06-07T07:36:40.992Z,501
2019-06-07T07:42:13.569Z,513
2019-06-07T07:47:32.596Z,516
2019-06-07T07:52:45.722Z,504
2019-06-07T07:58:11.064Z,509
2019-06-07T08:03:22.340Z,511
2019-06-07T08:08:33.332Z,498
2019-06-07T08:13:44.338Z,489
2019-06-07T08:19:02.277Z,479
2019-06-07T08:24:15.576Z,482
2019-06-07T08:29:26.295Z,471
2019-06-07T08:35:06.634Z,459
2019-06-07T08:40:18.443Z,455
2019-06-07T08:45:29.435Z,449
2019-06-07T08:50:41.017Z,458
2019-06-07T08:55:58.181Z,453
2019-06-07T09:01:22.183Z,512
2019-06-07T09:12:32.518Z,476
2019-06-07T09:18:30.038Z,466
2019-06-07T09:23:57.093Z,454
2019-06-07T09:29:22.607Z,454
2019-06-07T09:34:33.601Z,445
2019-06-07T09:39:44.894Z,447
2019-06-07T09:44:56.931Z,459
2019-06-07T09:50:19.515Z,460
2019-06-07T09:55:30.522Z,464
2019-06-07T10:00:42.719Z,450
2019-06-07T10:05:53.978Z,449
2019-06-07T10:11:06.690Z,457
2019-06-07T10:16:17.709Z,454
2019-06-07T10:21:29.040Z,449
2019-06-07T10:26:41.359Z,450
2019-06-07T10:52:56.732Z,480
2019-06-07T10:58:09.149Z,487
2019-06-07T11:03:21.505Z,495
2019-06-07T11:08:32.240Z,508
2019-06-07T11:13:43.240Z,517
2019-06-07T11:18:54.251Z,524
2019-06-07T11:24:06.101Z,528
2019-06-07T11:29:16.930Z,533
2019-06-07T11:34:29.954Z,534
2019-06-07T11:39:40.953Z,536
2019-06-07T11:44:56.564Z,542
2019-06-07T11:50:09.412Z,542
2019-06-07T11:55:22.623Z,548
2019-06-07T12:00:34.462Z,551
2019-06-07T12:05:45.463Z,550
2019-06-07T12:10:56.749Z,548
2019-06-07T12:16:09.026Z,547
2019-06-07T12:21:22.080Z,546
2019-06-07T12:26:33.626Z,552
2019-06-07T12:31:44.625Z,548
2019-06-07T12:36:55.707Z,549
2019-06-07T12:42:07.328Z,554
2019-06-07T12:47:18.964Z,555
2019-06-07T12:52:31.545Z,557
2019-06-07T12:57:42.271Z,554
2019-06-07T13:02:52.998Z,551
2019-06-07T13:08:04.588Z,550
2019-06-07T13:13:15.802Z,553
2019-06-07T13:18:26.521Z,550
2019-06-07T13:23:38.745Z,556
2019-06-07T13:28:55.109Z,556
2019-06-07T13:34:06.390Z,556
2019-06-07T13:39:18.946Z,555
2019-06-07T13:44:37.983Z,556
2019-06-07T13:49:49.287Z,559
2019-06-07T13:55:02.215Z,560
2019-06-07T14:00:14.010Z,559
2019-06-07T14:05:27.093Z,554
2019-06-07T14:10:39.599Z,554
2019-06-07T14:15:50.890Z,552
2019-06-07T14:21:02.514Z,550
2019-06-07T14:26:14.112Z,549
2019-06-07T14:31:26.258Z,586
2019-06-07T14:36:38.860Z,612
2019-06-07T14:42:05.370Z,617
2019-06-07T14:47:21.756Z,617
2019-06-07T14:52:35.085Z,610
2019-06-07T14:57:46.627Z,603
2019-06-07T15:02:58.147Z,593
2019-06-07T15:08:09.441Z,584
2019-06-07T15:13:20.238Z,578
2019-06-07T15:18:33.761Z,575
2019-06-07T15:23:46.400Z,569
2019-06-07T15:28:57.208Z,562
2019-06-07T15:34:07.890Z,558
2019-06-07T15:39:18.902Z,552
2019-06-07T15:44:29.650Z,557
2019-06-07T15:49:41.901Z,498
2019-06-07T15:54:53.485Z,491
2019-06-07T16:00:05.237Z,472
2019-06-07T16:05:16.817Z,469
2019-06-07T16:10:28.453Z,459
2019-06-07T16:15:41.350Z,451
2019-06-07T16:20:54.094Z,452
2019-06-07T16:26:05.667Z,434
2019-06-07T16:31:17.229Z,426
2019-06-07T16:36:28.854Z,426
2019-06-07T16:41:40.665Z,437
2019-06-07T16:46:53.124Z,436
2019-06-07T16:52:04.428Z,431
2019-06-07T16:57:16.026Z,427
2019-06-07T17:02:27.547Z,424
2019-06-07T17:07:40.209Z,423
2019-06-07T17:12:55.410Z,423
2019-06-07T17:18:06.993Z,425
2019-06-07T17:23:18.549Z,426
2019-06-07T17:28:30.141Z,427
2019-06-07T17:33:41.936Z,423
2019-06-07T17:38:54.266Z,425
2019-06-07T17:44:06.105Z,423
2019-06-07T17:49:17.381Z,424
2019-06-07T17:54:28.966Z,434
2019-06-07T17:59:42.331Z,433
2019-06-07T18:04:54.951Z,434
2019-06-07T18:10:06.549Z,430
2019-06-07T18:15:18.073Z,434
2019-06-07T18:20:29.627Z,434
2019-06-07T18:25:41.215Z,443
2019-06-07T18:30:52.871Z,579
2019-06-07T18:36:05.167Z,664
2019-06-07T18:41:16.751Z,677
2019-06-07T18:46:28.379Z,685
2019-06-07T18:51:40.109Z,703
2019-06-07T19:02:13.715Z,727
2019-06-07T19:07:25.277Z,721
2019-06-07T19:12:40.380Z,710
2019-06-07T19:17:52.169Z,619
2019-06-07T19:23:05.100Z,599
2019-06-07T19:28:20.512Z,603
2019-06-07T19:34:01.420Z,588
2019-06-07T19:39:14.982Z,593
2019-06-07T19:44:26.748Z,617
2019-06-07T19:49:38.297Z,626
2019-06-07T19:54:49.653Z,639
2019-06-07T20:05:28.190Z,694
2019-06-07T20:10:48.058Z,759
2019-06-07T20:16:00.877Z,840
2019-06-07T20:21:16.018Z,862
2019-06-07T20:26:31.776Z,885
2019-06-07T20:31:45.682Z,904
2019-06-07T20:36:57.870Z,910
2019-06-07T20:42:10.566Z,905
2019-06-07T20:47:22.109Z,893
2019-06-07T20:52:33.398Z,867
2019-06-07T20:57:47.594Z,845
2019-06-07T21:02:59.383Z,798
2019-06-07T21:08:14.175Z,765
2019-06-07T21:13:25.716Z,722
2019-06-07T21:18:39.955Z,714
2019-06-07T21:23:51.547Z,693
2019-06-07T21:29:03.389Z,671
2019-06-07T21:34:15.688Z,641
2019-06-07T21:39:27.263Z,628
2019-06-07T21:44:38.833Z,616
2019-06-07T21:49:50.410Z,608
2019-06-07T21:55:02.800Z,606
2019-06-07T22:00:15.278Z,609
2019-06-07T22:05:26.572Z,624
2019-06-07T22:10:38.570Z,629
2019-06-07T22:15:50.231Z,636
2019-06-07T22:21:01.872Z,631
2019-06-07T22:26:13.345Z,632
2019-06-07T22:31:26.383Z,629
2019-06-07T22:36:41.478Z,629
2019-06-07T22:41:53.215Z,633
2019-06-07T22:47:04.866Z,635
2019-06-07T22:52:17.179Z,633
2019-06-07T22:57:32.152Z,637
2019-06-07T23:02:43.711Z,629
2019-06-07T23:07:58.081Z,630
2019-06-07T23:13:13.458Z,664
2019-06-07T23:18:25.800Z,703
2019-06-07T23:23:37.380Z,719
2019-06-07T23:28:48.921Z,720
2019-06-07T23:34:00.230Z,718
2019-06-07T23:39:13.030Z,734
2019-06-07T23:44:25.685Z,748
2019-06-07T23:49:36.701Z,742
2019-06-07T23:54:47.719Z,727
2019-06-07T23:59:59.006Z,722
